Pierce, Nebraska
Current Conditions -  °F | °C
As of 7:56 PM on Friday 21 Nov 2014 (Local Time) from KOFK Reporting Station
Clear Clear  
Wind Chill: 29°   Ceiling: Unl
Heat Index: 38°   Visibility: 10mi
Dew Point: 29°   Wind: 16mph
Humidity: 70%   Direction: 170°S
Pressure: 29.92"   Gusts: NA
Location:  42.2°N, 97.53°W
Report Text: KOFK 220156Z AUTO 17014KT 10SM CLR 03/M02 A2992 RMK AO2 SLP150 T00331017
Loading
Personal Weather Stations






























Interactive Weather Map New forecast layout! Learn more

10-Day Weather Forecast

Advertisements
Track Severe Weather on mobile